Time;durP1;ratioP1;P1;durP2;ratioP2;P2;SDS_P1;SDS_P2;PMS_P1;PMS_P2;Temp;Humidity;BMP_temperature;BMP_pressure;BME280_temperature;BME280_humidity;BME280_pressure;Samples;Min_cycle;Max_cycle;Signal;HPM_P1;HPM_P2
2022/05/14 00:01:58;;;;;;;4.92;2.10;;;;;;;12.18;100.00;100538.70;1735732;81;20969;-45
2022/05/14 00:04:25;;;;;;;9.20;1.92;;;;;;;12.16;100.00;100537.89;1735944;82;20992;-44
2022/05/14 00:09:42;;;;;;;8.18;1.90;;;;;;;12.15;100.00;100528.41;1798416;79;22654;-43
2022/05/14 00:14:54;;;;;;;4.03;2.02;;;;;;;12.05;100.00;100523.88;1758287;81;21420;-43
2022/05/14 00:17:21;;;;;;;4.12;2.00;;;;;;;12.03;100.00;100519.59;1758135;81;20925;-43
2022/05/14 00:19:49;;;;;;;6.53;1.82;;;;;;;11.99;100.00;100516.17;1758155;81;20940;-44
2022/05/14 00:22:16;;;;;;;8.98;2.12;;;;;;;11.95;100.00;100510.66;1758022;81;20991;-44
2022/05/14 00:24:43;;;;;;;6.22;2.35;;;;;;;11.93;100.00;100505.95;1758217;81;20916;-44
2022/05/14 00:27:09;;;;;;;3.35;1.72;;;;;;;11.90;100.00;100504.73;1758140;81;21097;-44
2022/05/14 00:29:36;;;;;;;5.58;1.60;;;;;;;11.88;100.00;100509.97;1758162;81;20929;-44
2022/05/14 00:32:05;;;;;;;8.08;1.87;;;;;;;11.86;100.00;100502.64;1758039;81;20893;-44
2022/05/14 00:34:32;;;;;;;3.25;2.08;;;;;;;11.85;100.00;100497.50;1764215;81;20924;-44
2022/05/14 00:37:00;;;;;;;9.30;2.85;;;;;;;11.83;100.00;100502.71;1758236;81;20849;-44
2022/05/14 00:39:27;;;;;;;5.67;2.62;;;;;;;11.83;100.00;100499.28;1758037;81;21208;-44
2022/05/14 00:41:54;;;;;;;3.50;1.70;;;;;;;11.82;100.00;100493.69;1757932;81;20940;-44
2022/05/14 00:44:20;;;;;;;13.10;2.15;;;;;;;11.81;100.00;100486.80;1750641;81;20960;-44
2022/05/14 00:46:55;;;;;;;7.40;2.12;;;;;;;11.79;100.00;100486.39;1749839;82;20976;-44
2022/05/14 00:49:23;;;;;;;2.35;1.90;;;;;;;11.79;100.00;100482.50;1749987;82;20897;-44
2022/05/14 00:51:50;;;;;;;7.70;2.10;;;;;;;11.78;100.00;100479.92;1720459;82;21712;-44
2022/05/14 00:54:21;;;;;;;6.65;1.90;;;;;;;11.81;100.00;100481.61;1749779;82;20933;-44
2022/05/14 00:56:59;;;;;;;6.62;1.87;;;;;;;11.84;100.00;100483.67;1720413;82;21422;-44
2022/05/14 00:59:27;;;;;;;5.92;1.90;;;;;;;11.86;100.00;100477.16;1730906;81;21087;-45
2022/05/14 01:01:55;;;;;;;2.83;1.95;;;;;;;11.87;100.00;100474.55;1749805;82;20944;-43
2022/05/14 01:04:21;;;;;;;5.60;2.65;;;;;;;11.89;100.00;100467.58;1749702;81;21224;-44
2022/05/14 01:07:03;;;;;;;4.12;2.08;;;;;;;11.92;100.00;100462.74;1720815;82;20885;-44
2022/05/14 01:09:31;;;;;;;8.55;2.25;;;;;;;11.93;100.00;100459.26;1738901;81;20969;-44
2022/05/14 01:11:58;;;;;;;8.50;2.72;;;;;;;11.94;100.00;100454.48;1736560;82;20941;-45
2022/05/14 01:14:25;;;;;;;4.70;2.10;;;;;;;11.95;100.00;100456.18;1736557;82;21526;-45
2022/05/14 01:16:54;;;;;;;11.45;2.52;;;;;;;11.96;100.00;100450.56;1736730;82;22137;-44
2022/05/14 01:19:21;;;;;;;4.05;2.30;;;;;;;11.97;100.00;100446.62;1715571;82;21558;-44
2022/05/14 01:22:22;;;;;;;7.10;2.47;;;;;;;11.98;100.00;100444.89;1736041;82;20842;-44
2022/05/14 01:27:50;;;;;;;8.23;2.12;;;;;;;11.96;100.00;100436.30;1736099;82;20921;-44
2022/05/14 01:30:17;;;;;;;3.62;2.80;;;;;;;11.95;100.00;100434.59;1736047;82;21347;-44
2022/05/14 01:33:04;;;;;;;7.28;2.92;;;;;;;11.93;100.00;100438.51;1735840;82;21012;-44
2022/05/14 01:35:17;;;;;;;7.70;2.33;;;;;;;11.93;100.00;100435.48;1733685;82;22283;-44
2022/05/14 01:37:44;;;;;;;4.37;2.22;;;;;;;11.93;100.00;100434.62;1736022;82;20937;-44
2022/05/14 01:40:12;;;;;;;3.25;2.20;;;;;;;11.92;100.00;100427.73;1736013;82;20921;-45
2022/05/14 01:42:38;;;;;;;6.08;2.52;;;;;;;11.90;100.00;100425.19;1736033;82;21218;-44
2022/05/14 01:45:07;;;;;;;4.90;2.20;;;;;;;11.89;100.00;100422.19;1715111;82;20960;-44
2022/05/14 01:47:35;;;;;;;13.72;2.67;;;;;;;11.91;100.00;100422.13;1735832;82;20933;-44
2022/05/14 01:50:02;;;;;;;3.35;2.33;;;;;;;11.93;100.00;100421.64;1735912;82;20933;-44
2022/05/14 01:52:29;;;;;;;10.85;2.55;;;;;;;11.91;100.00;100418.24;1736187;81;20968;-44
2022/05/14 01:54:56;;;;;;;7.62;2.70;;;;;;;11.90;100.00;100424.32;1735898;82;21515;-45
2022/05/14 01:57:22;;;;;;;12.95;2.35;;;;;;;11.91;100.00;100425.59;1735899;82;20905;-45
2022/05/14 01:59:50;;;;;;;6.75;2.92;;;;;;;11.91;100.00;100420.84;1735976;81;21505;-44
2022/05/14 02:02:18;;;;;;;7.42;2.70;;;;;;;11.92;100.00;100422.54;1735990;82;20981;-44
2022/05/14 02:04:44;;;;;;;11.08;2.80;;;;;;;11.91;100.00;100420.84;1736088;82;20948;-45
2022/05/14 02:07:12;;;;;;;8.20;2.67;;;;;;;11.92;100.00;100427.73;1736006;82;21100;-45
2022/05/14 02:09:39;;;;;;;5.75;2.60;;;;;;;11.91;100.00;100433.80;1741795;81;21523;-44
2022/05/14 02:12:07;;;;;;;7.75;2.52;;;;;;;11.91;100.00;100441.59;1744119;82;20937;-44
2022/05/14 02:14:36;;;;;;;7.60;2.83;;;;;;;11.90;100.00;100441.18;1710089;82;21489;-44
2022/05/14 02:17:03;;;;;;;3.40;2.95;;;;;;;11.89;100.00;100445.96;1714832;82;21430;-45
2022/05/14 02:19:30;;;;;;;11.70;2.62;;;;;;;11.88;100.00;100436.05;1744250;82;21773;-45
2022/05/14 02:21:57;;;;;;;5.78;2.67;;;;;;;11.90;100.00;100434.70;1744126;82;20929;-44
2022/05/14 02:24:24;;;;;;;5.50;2.60;;;;;;;11.90;100.00;100442.48;1744302;82;21423;-45
2022/05/14 02:26:51;;;;;;;7.85;2.47;;;;;;;11.92;100.00;100441.99;1744226;82;20865;-45
2022/05/14 02:29:17;;;;;;;4.42;2.65;;;;;;;11.94;100.00;100446.70;1744083;82;20925;-45
2022/05/14 02:31:45;;;;;;;4.08;2.10;;;;;;;11.92;100.00;100444.16;1744124;82;21144;-45
2022/05/14 02:34:11;;;;;;;6.90;2.20;;;;;;;11.94;100.00;100444.10;1714514;82;20921;-45
2022/05/14 02:36:38;;;;;;;4.75;2.05;;;;;;;11.93;100.00;100441.97;1714961;82;20905;-45
2022/05/14 02:39:05;;;;;;;5.28;2.35;;;;;;;11.95;100.00;100440.62;1744101;82;21008;-45
2022/05/14 02:41:31;;;;;;;6.67;2.65;;;;;;;11.94;100.00;100437.62;1744309;82;21545;-44
2022/05/14 02:43:58;;;;;;;3.42;2.33;;;;;;;11.96;100.00;100438.89;1743781;81;21017;-44
2022/05/14 02:46:25;;;;;;;7.28;2.70;;;;;;;11.97;100.00;100428.46;1744259;81;21978;-44
2022/05/14 02:48:52;;;;;;;8.85;2.42;;;;;;;11.98;100.00;100437.11;1744182;82;20924;-45
2022/05/14 02:51:18;;;;;;;3.58;2.00;;;;;;;11.97;100.00;100427.16;1744268;81;20984;-45
2022/05/14 02:53:45;;;;;;;3.72;2.10;;;;;;;11.96;100.00;100429.35;1715004;82;20991;-45
2022/05/14 02:56:12;;;;;;;4.67;2.00;;;;;;;11.97;100.00;100418.08;1744076;82;21160;-45
2022/05/14 03:01:24;;;;;;;4.97;2.30;;;;;;;11.97;100.00;100421.97;1744369;82;20957;-44
2022/05/14 03:03:50;;;;;;;3.75;2.10;;;;;;;11.97;100.00;100423.27;1714684;82;20996;-44
2022/05/14 03:06:17;;;;;;;6.53;2.20;;;;;;;11.96;100.00;100416.84;1744180;82;20969;-44
2022/05/14 03:08:44;;;;;;;5.53;2.02;;;;;;;11.97;100.00;100415.95;1742078;81;21131;-44
2022/05/14 03:11:11;;;;;;;2.62;1.87;;;;;;;11.97;100.00;100420.67;1735781;82;20980;-45
2022/05/14 03:13:38;;;;;;;2.95;2.37;;;;;;;11.97;100.00;100418.08;1735926;81;20949;-44
2022/05/14 03:16:05;;;;;;;4.12;2.40;;;;;;;11.98;100.00;100426.73;1735986;82;21011;-44
2022/05/14 03:18:33;;;;;;;5.58;2.40;;;;;;;11.99;100.00;100418.06;1736068;82;20885;-44
2022/05/14 03:21:00;;;;;;;3.27;2.35;;;;;;;12.01;100.00;100422.36;1735849;81;21090;-44
2022/05/14 03:23:26;;;;;;;5.12;2.77;;;;;;;12.01;100.00;100429.28;1735824;82;21475;-44
2022/05/14 03:25:53;;;;;;;5.75;2.10;;;;;;;12.03;100.00;100425.77;1735983;82;21078;-48
2022/05/14 03:28:20;;;;;;;2.10;1.85;;;;;;;12.04;100.00;100422.71;1736286;82;20922;-44
2022/05/14 03:30:47;;;;;;;5.42;2.42;;;;;;;12.05;100.00;100423.12;1735978;82;20901;-44
2022/05/14 03:33:14;;;;;;;3.05;1.85;;;;;;;12.07;100.00;100425.23;1735987;82;22053;-44
2022/05/14 03:35:41;;;;;;;5.05;2.50;;;;;;;12.07;100.00;100424.80;1735949;81;20886;-44
2022/05/14 03:38:08;;;;;;;6.37;2.30;;;;;;;12.11;100.00;100426.02;1735873;82;20977;-45
2022/05/14 03:40:34;;;;;;;13.62;2.58;;;;;;;12.11;100.00;100419.53;1735748;82;21371;-45
2022/05/14 03:43:01;;;;;;;6.55;2.52;;;;;;;12.15;100.00;100417.25;1735861;81;20933;-45
2022/05/14 03:45:28;;;;;;;3.62;2.50;;;;;;;12.16;100.00;100409.44;1735970;82;21160;-45
2022/05/14 03:47:55;;;;;;;7.15;2.75;;;;;;;12.16;100.00;100402.09;1735802;82;20944;-45
2022/05/14 03:50:22;;;;;;;5.03;2.27;;;;;;;12.15;100.00;100412.06;1735880;82;20921;-45
2022/05/14 03:52:49;;;;;;;7.75;2.87;;;;;;;12.15;100.00;100410.77;1735974;82;20925;-46
2022/05/14 03:55:16;;;;;;;13.28;3.15;;;;;;;12.15;100.00;100413.36;1736004;82;20917;-45
2022/05/14 03:57:43;;;;;;;4.20;2.30;;;;;;;12.15;100.00;100413.36;1735854;82;21143;-45
2022/05/14 04:00:11;;;;;;;3.40;2.55;;;;;;;12.17;100.00;100411.58;1735777;82;20913;-45
2022/05/14 04:02:41;;;;;;;10.95;2.75;;;;;;;12.16;100.00;100411.17;1735832;82;20981;-45
2022/05/14 04:05:09;;;;;;;4.62;3.67;;;;;;;12.13;100.00;100407.36;1735848;82;20846;-45
2022/05/14 04:07:36;;;;;;;3.17;2.62;;;;;;;12.13;100.00;100409.53;1735845;82;21055;-46
2022/05/14 04:10:04;;;;;;;7.40;3.10;;;;;;;12.14;100.00;100405.17;1741163;81;21467;-46
2022/05/14 04:12:32;;;;;;;16.17;3.42;;;;;;;12.13;100.00;100409.95;1714876;82;20873;-45
2022/05/14 04:14:58;;;;;;;3.62;2.70;;;;;;;12.11;100.00;100408.69;1743858;81;20980;-45
2022/05/14 04:17:25;;;;;;;6.00;2.90;;;;;;;12.09;100.00;100405.74;1714682;82;21569;-45
2022/05/14 04:19:53;;;;;;;4.75;2.83;;;;;;;12.11;100.00;100397.47;1714841;82;21055;-44
2022/05/14 04:22:20;;;;;;;8.73;2.98;;;;;;;12.14;100.00;100390.91;1744119;82;21230;-46
2022/05/14 04:24:47;;;;;;;7.30;3.08;;;;;;;12.19;100.00;100395.09;1743929;82;20984;-44
2022/05/14 04:27:14;;;;;;;4.75;2.62;;;;;;;12.23;100.00;100394.55;1744058;82;21009;-44
2022/05/14 04:29:41;;;;;;;8.05;3.35;;;;;;;12.26;100.00;100395.79;1744079;81;20941;-44
2022/05/14 04:32:08;;;;;;;8.00;3.02;;;;;;;12.30;100.00;100396.11;1744060;82;20976;-44
2022/05/14 04:34:35;;;;;;;4.60;3.22;;;;;;;12.38;100.00;100398.50;1735537;82;21239;-45
2022/05/14 04:37:03;;;;;;;3.37;2.83;;;;;;;12.42;100.00;100398.82;1743927;82;20889;-44
2022/05/14 04:39:33;;;;;;;5.80;3.30;;;;;;;12.48;100.00;100398.65;1744079;82;20904;-46
2022/05/14 04:42:06;;;;;;;9.08;3.45;;;;;;;12.49;100.00;100400.34;1744054;82;20957;-46
2022/05/14 04:44:36;;;;;;;5.92;3.40;;;;;;;12.52;100.00;100402.45;1744619;82;21623;-45
2022/05/14 04:47:04;;;;;;;4.70;3.45;;;;;;;12.55;100.00;100401.94;1744028;82;21420;-45
2022/05/14 04:49:31;;;;;;;8.25;2.72;;;;;;;12.58;100.00;100409.64;1744109;82;20877;-45
2022/05/14 04:51:58;;;;;;;3.75;3.40;;;;;;;12.60;100.00;100410.44;1743856;81;20992;-45
2022/05/14 04:54:25;;;;;;;10.63;3.62;;;;;;;12.62;100.00;100405.19;1743964;82;21004;-45
2022/05/14 04:56:52;;;;;;;4.03;3.42;;;;;;;12.60;100.00;100403.95;1714905;82;20905;-45
2022/05/14 04:59:19;;;;;;;3.90;3.20;;;;;;;12.59;100.00;100403.55;1744131;82;22098;-45
2022/05/14 05:04:33;;;;;;;4.90;3.90;;;;;;;12.57;100.00;100398.84;1744234;82;21036;-45
2022/05/14 05:07:00;;;;;;;4.05;3.65;;;;;;;12.59;100.00;100396.19;1744155;82;20885;-45
2022/05/14 05:09:27;;;;;;;6.65;3.25;;;;;;;12.56;100.00;100391.08;1718525;81;21026;-45
2022/05/14 05:11:54;;;;;;;5.97;3.67;;;;;;;12.56;100.00;100391.08;1757706;81;22036;-45
2022/05/14 05:14:21;;;;;;;10.90;3.60;;;;;;;12.54;100.00;100392.44;1757627;81;21011;-46
2022/05/14 05:16:47;;;;;;;5.00;3.47;;;;;;;12.53;100.00;100389.87;1757774;81;21592;-45
2022/05/14 05:19:14;;;;;;;5.58;3.60;;;;;;;12.52;100.00;100391.64;1757722;81;20927;-45
2022/05/14 05:21:40;;;;;;;4.05;3.65;;;;;;;12.50;100.00;100392.09;1757941;81;20971;-45
2022/05/14 05:24:08;;;;;;;4.05;3.70;;;;;;;12.49;100.00;100395.16;1757793;81;21150;-45
2022/05/14 05:26:34;;;;;;;7.62;3.62;;;;;;;12.48;100.00;100394.75;1757725;81;21006;-45
2022/05/14 05:29:01;;;;;;;10.48;4.10;;;;;;;12.49;100.00;100391.69;1757715;81;21406;-45
2022/05/14 05:31:28;;;;;;;7.30;3.90;;;;;;;12.48;100.00;100386.97;1757745;81;20920;-45
2022/05/14 05:33:55;;;;;;;6.58;3.87;;;;;;;12.49;100.00;100386.50;1757837;81;20936;-45
2022/05/14 05:36:22;;;;;;;8.50;4.30;;;;;;;12.48;100.00;100379.61;1757694;81;21133;-46
2022/05/14 05:38:51;;;;;;;5.72;4.08;;;;;;;12.47;100.00;100376.61;1757759;81;20849;-45
2022/05/14 05:41:19;;;;;;;4.78;3.85;;;;;;;12.46;100.00;100373.61;1757889;81;21509;-45
2022/05/14 05:43:46;;;;;;;5.42;4.00;;;;;;;12.42;100.00;100374.59;1757973;81;20975;-46
2022/05/14 05:46:13;;;;;;;10.35;4.25;;;;;;;12.41;100.00;100383.27;1757830;81;20893;-45
2022/05/14 05:48:41;;;;;;;5.50;3.62;;;;;;;12.38;100.00;100385.52;1757635;81;22082;-46
2022/05/14 05:51:09;;;;;;;5.33;3.65;;;;;;;12.35;100.00;100388.17;1757764;81;20972;-46
2022/05/14 05:59:06;;;;;;;9.88;4.62;;;;;;;12.29;100.00;100405.22;1758002;81;21584;-46
2022/05/14 06:01:33;;;;;;;11.10;4.58;;;;;;;12.27;100.00;100427.77;1758091;81;21146;-46
2022/05/14 06:03:59;;;;;;;10.63;4.95;;;;;;;12.25;100.00;100435.61;1757655;81;20983;-46
2022/05/14 06:06:26;;;;;;;16.48;4.15;;;;;;;12.22;100.00;100464.20;1757769;81;20920;-47
2022/05/14 06:08:53;;;;;;;15.13;5.92;;;;;;;12.18;100.00;100494.59;1729841;81;20943;-47
2022/05/14 06:11:20;;;;;;;18.48;5.78;;;;;;;12.14;100.00;100497.28;1737942;81;20889;-49
2022/05/14 06:13:47;;;;;;;18.07;6.30;;;;;;;12.00;100.00;100488.08;1735939;82;21092;-48
2022/05/14 06:16:15;;;;;;;18.12;5.40;;;;;;;11.92;100.00;100470.52;1735853;82;20937;-48
2022/05/14 06:18:44;;;;;;;6.25;4.10;;;;;;;11.90;100.00;100462.80;1735991;81;20889;-47
2022/05/14 06:21:11;;;;;;;7.90;2.80;;;;;;;11.90;100.00;100471.01;1735891;82;21000;-47
2022/05/14 06:23:38;;;;;;;2.85;2.30;;;;;;;11.90;100.00;100469.28;1735968;82;20968;-47
2022/05/14 06:26:05;;;;;;;5.17;2.58;;;;;;;11.87;100.00;100458.98;1736232;82;21090;-48
2022/05/14 06:28:32;;;;;;;4.72;2.45;;;;;;;11.87;100.00;100460.70;1736065;81;20882;-48
2022/05/14 06:30:58;;;;;;;3.77;2.60;;;;;;;11.87;100.00;100436.94;1736003;82;20932;-48
2022/05/14 06:33:26;;;;;;;7.12;2.98;;;;;;;11.90;100.00;100412.65;1735801;82;20929;-48
2022/05/14 06:35:53;;;;;;;10.68;3.40;;;;;;;11.90;100.00;100399.68;1736068;81;20988;-48
2022/05/14 06:38:20;;;;;;;5.92;3.60;;;;;;;11.89;100.00;100378.52;1735938;82;21127;-48
2022/05/14 06:40:47;;;;;;;8.70;3.33;;;;;;;11.93;100.00;100408.25;1735948;82;20913;-48
2022/05/14 06:43:15;;;;;;;5.85;3.00;;;;;;;11.96;100.00;100443.62;1735832;82;20937;-47
2022/05/14 06:45:44;;;;;;;8.20;3.10;;;;;;;11.98;100.00;100440.54;1735871;82;21062;-47
2022/05/14 06:48:11;;;;;;;6.85;3.17;;;;;;;12.01;100.00;100441.82;1735996;82;21527;-47
2022/05/14 06:50:42;;;;;;;5.35;3.10;;;;;;;12.09;100.00;100440.77;1735860;82;21055;-47
2022/05/14 06:53:09;;;;;;;7.30;3.02;;;;;;;12.17;100.00;100435.80;1735791;82;20952;-46
2022/05/14 06:55:38;;;;;;;3.20;2.85;;;;;;;12.21;100.00;100429.63;1735746;81;20893;-47
2022/05/14 06:58:06;;;;;;;4.50;2.67;;;;;;;12.28;100.00;100430.77;1735882;82;20929;-46
2022/05/14 07:00:32;;;;;;;5.05;2.40;;;;;;;12.34;100.00;100411.13;1735831;81;20917;-47
2022/05/14 07:08:29;;;;;;;2.72;1.82;;;;;;;12.48;100.00;100419.84;1735979;81;20941;-46
2022/05/14 07:10:58;;;;;;;14.63;6.65;;;;;;;12.56;100.00;100419.22;1744136;81;21483;-46
2022/05/14 07:13:24;;;;;;;8.28;4.92;;;;;;;12.69;100.00;100408.47;1749825;82;21416;-46
2022/05/14 07:15:51;;;;;;;7.53;2.75;;;;;;;12.90;100.00;100401.38;1749853;82;21151;-46
2022/05/14 07:18:18;;;;;;;4.85;2.60;;;;;;;13.09;100.00;100398.24;1750076;82;21032;-46
2022/05/14 07:20:44;;;;;;;5.35;2.85;;;;;;;13.28;100.00;100402.89;1749987;82;20929;-46
2022/05/14 07:23:13;;;;;;;7.47;3.35;;;;;;;13.43;100.00;100397.70;1749832;82;20936;-46
2022/05/14 07:25:40;;;;;;;5.75;3.60;;;;;;;13.54;100.00;100386.96;1749942;82;20877;-46
2022/05/14 07:28:08;;;;;;;8.93;3.98;;;;;;;13.58;100.00;100385.96;1749883;82;21250;-45
2022/05/14 07:30:36;;;;;;;4.87;3.60;;;;;;;13.61;100.00;100385.86;1749616;81;20913;-44
2022/05/14 07:33:02;;;;;;;2.17;2.05;;;;;;;13.65;100.00;100390.05;1749648;81;20881;-45
2022/05/14 07:35:29;;;;;;;3.27;1.82;;;;;;;13.73;100.00;100388.52;1749950;82;20897;-45
2022/05/14 07:37:57;;;;;;;2.22;1.60;;;;;;;13.86;100.00;100375.95;1749768;82;20973;-45
2022/05/14 07:40:27;;;;;;;3.67;1.80;;;;;;;14.02;100.00;100368.03;1749892;82;21138;-52
2022/05/14 07:42:59;;;;;;;2.20;2.00;;;;;;;14.18;100.00;100367.48;1749938;82;21542;-45
2022/05/14 07:45:29;;;;;;;1.72;1.52;;;;;;;14.25;100.00;100366.36;1749630;82;20992;-45
2022/05/14 07:47:57;;;;;;;3.10;1.80;;;;;;;14.25;100.00;100367.66;1749903;82;20928;-45
2022/05/14 07:50:24;;;;;;;1.57;1.37;;;;;;;14.28;100.00;100370.62;1722410;82;21011;-45
2022/05/14 07:52:51;;;;;;;4.58;1.80;;;;;;;14.31;100.00;100373.98;1749799;80;21422;-45
2022/05/14 07:55:19;;;;;;;4.12;2.10;;;;;;;14.33;100.00;100371.30;1749849;82;21054;-45
2022/05/14 07:57:45;;;;;;;7.97;1.92;;;;;;;14.32;100.00;100359.19;1722530;82;20983;-46
2022/05/14 08:00:14;;;;;;;2.45;1.62;;;;;;;14.35;100.00;100361.24;1749879;82;21031;-45
2022/05/14 08:02:43;;;;;;;2.12;1.30;;;;;;;14.40;100.00;100362.39;1722537;82;21541;-45
2022/05/14 08:05:10;;;;;;;2.47;1.40;;;;;;;14.42;100.00;100358.41;1749813;82;21729;-46
2022/05/14 08:07:37;;;;;;;2.75;1.40;;;;;;;14.47;100.00;100358.65;1749648;82;21545;-45
2022/05/14 08:10:06;;;;;;;1.17;1.07;;;;;;;14.56;100.00;100350.95;1749818;81;20894;-45
2022/05/14 08:12:38;;;;;;;3.22;1.50;;;;;;;14.64;100.00;100347.61;1749908;82;20957;-45
2022/05/14 08:15:07;;;;;;;4.85;1.57;;;;;;;14.71;100.00;100347.41;1749355;82;21450;-46
2022/05/14 08:17:34;;;;;;;2.17;1.37;;;;;;;14.70;100.00;100344.38;1722311;82;21553;-45
2022/05/14 08:20:00;;;;;;;2.20;1.45;;;;;;;14.74;100.00;100342.94;1749851;82;20889;-46
2022/05/14 08:25:12;;;;;;;1.35;1.10;;;;;;;14.76;100.00;100338.95;1749990;82;20881;-44
2022/05/14 08:27:45;;;;;;;1.27;1.00;;;;;;;14.72;100.00;100339.98;1749948;82;20971;-44
2022/05/14 08:30:26;;;;;;;2.58;1.10;;;;;;;14.71;100.00;100339.15;1749707;82;21252;-45
2022/05/14 08:32:53;;;;;;;1.87;1.77;;;;;;;14.65;100.00;100334.11;1749908;80;20880;-44
2022/05/14 08:35:20;;;;;;;1.12;1.10;;;;;;;14.53;100.00;100332.84;1750195;82;21391;-44
2022/05/14 08:37:49;;;;;;;1.50;1.40;;;;;;;14.42;100.00;100335.84;1750016;82;20901;-44
2022/05/14 08:40:24;;;;;;;1.50;1.40;;;;;;;14.33;100.00;100337.02;1750215;82;20979;-44
2022/05/14 08:42:53;;;;;;;1.30;1.20;;;;;;;14.30;100.00;100335.83;1746145;82;21192;-44
2022/05/14 08:45:22;;;;;;;1.20;1.10;;;;;;;14.29;100.00;100333.27;1749917;82;20956;-44
2022/05/14 08:47:57;;;;;;;1.65;0.90;;;;;;;14.30;100.00;100337.57;1749945;82;20979;-43
2022/05/14 08:50:34;;;;;;;0.82;0.70;;;;;;;14.26;100.00;100342.02;1749290;82;20984;-45
2022/05/14 08:53:05;;;;;;;0.62;0.62;;;;;;;14.26;100.00;100338.12;1750070;81;20925;-46
2022/05/14 08:55:46;;;;;;;0.60;0.60;;;;;;;14.35;100.00;100332.60;1749895;82;21131;-44
2022/05/14 08:58:33;;;;;;;0.70;0.70;;;;;;;14.48;100.00;100326.93;1750022;81;20924;-46
2022/05/14 09:01:00;;;;;;;0.72;0.60;;;;;;;14.60;100.00;100322.58;1749737;82;21483;-44
2022/05/14 09:03:27;;;;;;;1.67;0.70;;;;;;;14.76;100.00;100320.28;1750043;82;20897;-44
2022/05/14 09:05:56;;;;;;;2.20;0.70;;;;;;;14.90;100.00;100321.48;1750040;82;20932;-43
2022/05/14 09:08:24;;;;;;;1.62;0.62;;;;;;;14.87;100.00;100319.88;1750025;82;21257;-44
2022/05/14 09:11:00;;;;;;;0.93;0.70;;;;;;;15.01;100.00;100313.25;1749830;82;21502;-45
2022/05/14 09:13:28;;;;;;;0.78;0.70;;;;;;;15.29;100.00;100302.59;1750301;82;20948;-44
2022/05/14 09:15:59;;;;;;;1.12;0.60;;;;;;;15.74;100.00;100298.59;1749813;82;21497;-45
2022/05/14 09:18:36;;;;;;;0.50;0.50;;;;;;;16.05;100.00;100305.98;1749975;82;20924;-45
2022/05/14 09:21:05;;;;;;;0.75;0.50;;;;;;;16.16;100.00;100302.88;1748895;82;21268;-45
2022/05/14 09:23:44;;;;;;;0.70;0.50;;;;;;;16.08;100.00;100294.10;1739250;82;20885;-45
2022/05/14 09:26:17;;;;;;;0.55;0.55;;;;;;;15.93;100.00;100292.15;1749838;82;21439;-44
2022/05/14 09:28:54;;;;;;;0.78;0.42;;;;;;;15.84;97.99;100297.27;1749967;81;21435;-45
2022/05/14 09:31:36;;;;;;;1.20;0.50;;;;;;;16.01;99.81;100292.66;1749204;82;20983;-45
2022/05/14 09:34:12;;;;;;;0.40;0.40;;;;;;;16.42;99.82;100289.58;1750067;81;22990;-44
2022/05/14 09:36:39;;;;;;;1.98;0.50;;;;;;;16.77;98.49;100291.01;1748784;82;20841;-45
2022/05/14 09:39:13;;;;;;;0.50;0.50;;;;;;;17.12;94.56;100279.82;1750173;82;21474;-45
2022/05/14 09:41:50;;;;;;;1.55;0.57;;;;;;;17.51;93.37;100275.69;1749896;82;21194;-45
2022/05/14 09:44:45;;;;;;;2.85;0.70;;;;;;;17.90;91.10;100269.80;1749911;82;21042;-45
2022/05/14 09:47:25;;;;;;;0.85;0.42;;;;;;;18.36;87.81;100266.56;1750041;82;21166;-45
2022/05/14 09:50:05;;;;;;;1.47;0.50;;;;;;;18.65;84.25;100269.36;1749813;80;20929;-45
2022/05/14 09:52:36;;;;;;;0.57;0.53;;;;;;;19.00;82.01;100267.48;1749945;82;21043;-45
2022/05/14 09:55:08;;;;;;;1.87;0.53;;;;;;;19.19;81.63;100261.56;1749876;82;20897;-46
2022/05/14 09:57:52;;;;;;;2.10;0.53;;;;;;;19.31;77.45;100264.40;1750143;82;20913;-45
2022/05/14 10:00:22;;;;;;;0.50;0.40;;;;;;;18.87;75.48;100265.98;1749963;82;21154;-45
2022/05/14 10:03:27;;;;;;;0.65;0.50;;;;;;;18.73;78.64;100263.69;1749857;82;20916;-45
2022/05/14 10:06:05;;;;;;;;;;;;;;;18.74;78.04;100272.39;1752637;82;20948;-45
2022/05/14 10:08:57;;;;;;;0.55;0.47;;;;;;;18.62;78.53;100272.60;1749942;82;20425;-45
2022/05/14 10:11:37;;;;;;;1.37;0.40;;;;;;;18.66;78.72;100267.56;1749985;81;20888;-45
2022/05/14 10:14:24;;;;;;;0.40;0.40;;;;;;;18.77;78.77;100266.97;1749860;82;21073;-46
2022/05/14 10:17:03;;;;;;;0.40;0.40;;;;;;;18.67;78.55;100274.05;1749854;82;20933;-45
2022/05/14 10:20:00;;;;;;;0.50;0.50;;;;;;;18.62;77.99;100269.98;1749865;82;20929;-44
2022/05/14 10:26:44;;;;;;;;;;;;;;;18.57;78.72;100270.25;1725930;83;20964;-46
2022/05/14 10:28:10;;;;;;;0.60;0.60;;;;;;;19.20;78.16;100263.25;1749909;82;21252;-45
2022/05/14 10:31:06;;;;;;;0.30;0.30;;;;;;;19.55;76.46;100261.27;1749802;82;20975;-44
2022/05/14 10:33:33;;;;;;;0.40;0.40;;;;;;;19.84;76.59;100261.33;1750213;82;21042;-46
2022/05/14 10:36:34;;;;;;;0.23;0.23;;;;;;;20.08;73.40;100258.55;1750135;82;21459;-44
2022/05/14 10:39:09;;;;;;;0.55;0.30;;;;;;;20.17;73.91;100263.69;1749920;80;21122;-44
2022/05/14 10:41:41;;;;;;;0.30;0.30;;;;;;;20.18;72.59;100264.55;1749964;82;21166;-45
2022/05/14 10:44:15;;;;;;;2.47;0.40;;;;;;;20.04;73.07;100258.83;1747261;82;20924;-45
2022/05/14 10:46:41;;;;;;;0.47;0.47;;;;;;;20.11;72.39;100260.13;1722460;82;20920;-46
2022/05/14 10:49:27;;;;;;;0.72;0.40;;;;;;;20.24;72.28;100249.70;1749819;82;21079;-46
2022/05/14 10:51:53;;;;;;;2.30;0.50;;;;;;;20.22;71.29;100255.07;1750048;81;20964;-45
2022/05/14 10:54:22;;;;;;;1.45;0.40;;;;;;;19.99;72.54;100255.16;1749948;82;21150;-45
2022/05/14 10:57:03;;;;;;;0.80;0.42;;;;;;;19.73;72.44;100248.85;1749768;82;20932;-46
2022/05/14 10:59:40;;;;;;;0.35;0.30;;;;;;;19.63;73.25;100246.76;1748393;82;21338;-46
2022/05/14 11:02:15;;;;;;;0.37;0.37;;;;;;;19.61;72.80;100242.55;1749727;81;21518;-46
2022/05/14 11:04:48;;;;;;;1.10;0.50;;;;;;;19.59;74.18;100240.01;1750079;82;21026;-46
2022/05/14 11:07:43;;;;;;;0.47;0.45;;;;;;;19.63;73.57;100245.45;1749964;82;21152;-46
2022/05/14 11:10:20;;;;;;;0.68;0.60;;;;;;;19.53;73.67;100238.59;1726462;83;21059;-44
2022/05/14 11:12:47;;;;;;;0.60;0.60;;;;;;;19.49;74.61;100235.77;1734308;81;21533;-44
2022/05/14 11:15:24;;;;;;;3.05;0.50;;;;;;;19.46;73.67;100227.26;1735993;82;20884;-45
2022/05/14 11:18:04;;;;;;;1.85;0.80;;;;;;;19.29;73.77;100223.84;1735898;82;20965;-44
2022/05/14 11:20:31;;;;;;;0.30;0.30;;;;;;;19.09;74.36;100223.22;1735842;82;21089;-45
2022/05/14 11:23:10;;;;;;;0.78;0.55;;;;;;;19.00;75.19;100222.90;1735935;82;20908;-45
2022/05/14 11:25:37;;;;;;;1.60;0.40;;;;;;;18.92;74.40;100216.74;1735914;82;21546;-44
2022/05/14 11:28:22;;;;;;;0.60;0.47;;;;;;;18.80;74.71;100213.05;1735746;82;20937;-45
2022/05/14 11:30:58;;;;;;;1.45;0.60;;;;;;;18.68;75.23;100214.58;1735947;81;21000;-45
2022/05/14 11:33:31;;;;;;;0.40;0.40;;;;;;;18.51;73.21;100219.47;1734532;82;21238;-45
2022/05/14 11:36:04;;;;;;;0.42;0.42;;;;;;;18.40;74.07;100227.09;1736036;82;20933;-45
2022/05/14 11:38:36;;;;;;;3.02;0.47;;;;;;;18.40;74.36;100220.53;1735927;82;21015;-45
2022/05/14 11:41:06;;;;;;;0.80;0.42;;;;;;;18.47;75.53;100229.29;1735846;82;21020;-47
2022/05/14 11:43:49;;;;;;;2.92;0.50;;;;;;;18.52;78.02;100225.94;1735912;82;21320;-46
2022/05/14 11:46:41;;;;;;;0.50;0.50;;;;;;;18.46;77.63;100216.26;1735802;82;21150;-45
2022/05/14 11:49:29;;;;;;;0.82;0.40;;;;;;;18.58;77.86;100210.80;1735997;82;21483;-44
2022/05/14 11:52:25;;;;;;;1.07;0.50;;;;;;;18.77;76.19;100210.60;1735850;82;20936;-45
2022/05/14 11:54:57;;;;;;;1.10;0.50;;;;;;;18.84;76.36;100211.97;1736112;82;20929;-45
2022/05/14 11:57:37;;;;;;;0.20;0.20;;;;;;;18.99;75.98;100214.66;1734794;82;21460;-45
2022/05/14 12:00:18;;;;;;;2.83;0.60;;;;;;;19.12;75.77;100208.23;1735743;81;21927;-45
2022/05/14 12:02:54;;;;;;;1.42;0.57;;;;;;;19.24;75.26;100195.72;1735661;82;20906;-45
2022/05/14 12:05:57;;;;;;;1.32;0.80;;;;;;;19.43;74.42;100198.54;1736049;82;20921;-45